EZY25C EGCC-EGPH
Flight info
| Callsign | EZY25C |
|---|---|
| Flight time | 0h 33m |
| Altitude | 24000 |
| Route | DESIG DCT DOMIG DCT ULSAX N601 INPIP |
| Aircraft | A20N/M-SDE2E3FGHIRWXY/LB1 |
Departure
| Time | 2026-05-06 14:56 |
|---|---|
| Airport | Manchester Airport (EGCC) |
Arrival
| Time | 2026-05-06 15:30 |
|---|---|
| Airport | Edinburgh Airport (EGPH) |
| Time | Latitude | Longitude | Altitude | Speed | Heading |
|---|---|---|---|---|---|
| 2026-05-06 14:28 | 53.36729 | -2.28439 | 219 ft | 0 kts | 135° |
| 2026-05-06 14:37 | 53.36729 | -2.28440 | 219 ft | 1 kts | 136° |
| 2026-05-06 14:38 | 53.36739 | -2.28457 | 219 ft | 2 kts | 136° |
| 2026-05-06 14:38 | 53.36750 | -2.28473 | 219 ft | 2 kts | 136° |
| 2026-05-06 14:38 | 53.36760 | -2.28491 | 219 ft | 2 kts | 136° |
| 2026-05-06 14:38 | 53.36771 | -2.28509 | 219 ft | 1 kts | 146° |
| 2026-05-06 14:39 | 53.36784 | -2.28512 | 220 ft | 2 kts | 202° |
| 2026-05-06 14:39 | 53.36791 | -2.28505 | 220 ft | 0 kts | 229° |
| 2026-05-06 14:39 | 53.36795 | -2.28498 | 220 ft | 0 kts | 225° |
| 2026-05-06 14:42 | 53.36774 | -2.28533 | 219 ft | 9 kts | 224° |
| 2026-05-06 14:43 | 53.36722 | -2.28619 | 217 ft | 8 kts | 226° |
| 2026-05-06 14:43 | 53.36694 | -2.28667 | 216 ft | 6 kts | 224° |
| 2026-05-06 14:43 | 53.36656 | -2.28727 | 216 ft | 7 kts | 224° |
| 2026-05-06 14:43 | 53.36606 | -2.28776 | 217 ft | 12 kts | 168° |
| 2026-05-06 14:44 | 53.36522 | -2.28663 | 215 ft | 12 kts | 134° |
| 2026-05-06 14:44 | 53.36463 | -2.28560 | 215 ft | 12 kts | 135° |
| 2026-05-06 14:44 | 53.36401 | -2.28477 | 216 ft | 8 kts | 166° |
| 2026-05-06 14:45 | 53.36269 | -2.28331 | 222 ft | 9 kts | 134° |
| 2026-05-06 14:45 | 53.36246 | -2.28292 | 224 ft | 0 kts | 134° |
| 2026-05-06 14:46 | 53.36218 | -2.28243 | 227 ft | 9 kts | 134° |
| 2026-05-06 14:46 | 53.36165 | -2.28151 | 232 ft | 12 kts | 134° |
| 2026-05-06 14:46 | 53.36089 | -2.28029 | 236 ft | 17 kts | 140° |
| 2026-05-06 14:46 | 53.35996 | -2.27900 | 238 ft | 15 kts | 143° |
| 2026-05-06 14:47 | 53.35865 | -2.27856 | 238 ft | 24 kts | 183° |
| 2026-05-06 14:47 | 53.35696 | -2.27883 | 238 ft | 20 kts | 187° |
| 2026-05-06 14:47 | 53.35601 | -2.27950 | 238 ft | 15 kts | 230° |
| 2026-05-06 14:47 | 53.35533 | -2.28086 | 237 ft | 16 kts | 227° |
| 2026-05-06 14:48 | 53.35423 | -2.28158 | 235 ft | 17 kts | 191° |
| 2026-05-06 14:48 | 53.35305 | -2.28210 | 235 ft | 17 kts | 204° |
| 2026-05-06 14:48 | 53.35209 | -2.28347 | 231 ft | 19 kts | 232° |
| 2026-05-06 14:48 | 53.35126 | -2.28519 | 229 ft | 16 kts | 231° |
| 2026-05-06 14:49 | 53.35051 | -2.28674 | 226 ft | 14 kts | 232° |
| 2026-05-06 14:49 | 53.34982 | -2.28803 | 224 ft | 13 kts | 226° |
| 2026-05-06 14:49 | 53.34925 | -2.28897 | 221 ft | 8 kts | 224° |
| 2026-05-06 14:49 | 53.34891 | -2.28955 | 218 ft | 3 kts | 226° |
| 2026-05-06 14:53 | 53.34853 | -2.29020 | 215 ft | 13 kts | 226° |
| 2026-05-06 14:53 | 53.34779 | -2.29154 | 208 ft | 17 kts | 236° |
| 2026-05-06 14:54 | 53.34688 | -2.29327 | 199 ft | 19 kts | 201° |
| 2026-05-06 14:54 | 53.34598 | -2.29337 | 196 ft | 13 kts | 165° |
| 2026-05-06 14:54 | 53.34547 | -2.29280 | 196 ft | 5 kts | 123° |
| 2026-05-06 14:54 | 53.34540 | -2.29227 | 198 ft | 3 kts | 70° |
| 2026-05-06 14:55 | 53.34550 | -2.29202 | 199 ft | 0 kts | 52° |
| 2026-05-06 14:55 | 53.34580 | -2.29139 | 203 ft | 32 kts | 52° |
| 2026-05-06 14:55 | 53.34878 | -2.28522 | 225 ft | 102 kts | 51° |
| 2026-05-06 14:56 | 53.35447 | -2.27343 | 252 ft | 158 kts | 51° |
| 2026-05-06 14:56 | 53.36179 | -2.25840 | 718 ft | 170 kts | 51° |
| 2026-05-06 14:56 | 53.36911 | -2.24317 | 1464 ft | 171 kts | 52° |
| 2026-05-06 14:56 | 53.37613 | -2.22796 | 2299 ft | 165 kts | 53° |
| 2026-05-06 14:57 | 53.38320 | -2.21233 | 2823 ft | 176 kts | 54° |
| 2026-05-06 14:57 | 53.39085 | -2.19545 | 3300 ft | 191 kts | 53° |
| 2026-05-06 14:57 | 53.39939 | -2.17675 | 3665 ft | 215 kts | 53° |
| 2026-05-06 14:57 | 53.40897 | -2.15621 | 4188 ft | 233 kts | 52° |
| 2026-05-06 14:58 | 53.41920 | -2.13427 | 4757 ft | 250 kts | 52° |
| 2026-05-06 14:58 | 53.43009 | -2.11081 | 5453 ft | 261 kts | 51° |
| 2026-05-06 14:58 | 53.44308 | -2.09001 | 6327 ft | 264 kts | 29° |
| 2026-05-06 14:58 | 53.46023 | -2.08122 | 7210 ft | 267 kts | 2° |
| 2026-05-06 14:59 | 53.47858 | -2.08501 | 8101 ft | 269 kts | 348° |
| 2026-05-06 14:59 | 53.49692 | -2.09063 | 8954 ft | 274 kts | 351° |
| 2026-05-06 14:59 | 53.51582 | -2.09425 | 9800 ft | 278 kts | 354° |
| 2026-05-06 14:59 | 53.53526 | -2.09619 | 10565 ft | 285 kts | 356° |
| 2026-05-06 15:00 | 53.55551 | -2.09729 | 11041 ft | 302 kts | 357° |
| 2026-05-06 15:00 | 53.57727 | -2.09816 | 11464 ft | 321 kts | 357° |
| 2026-05-06 15:00 | 53.59990 | -2.09892 | 11842 ft | 339 kts | 358° |
| 2026-05-06 15:00 | 53.62410 | -2.09966 | 12181 ft | 357 kts | 358° |
| 2026-05-06 15:01 | 53.64930 | -2.10040 | 12488 ft | 374 kts | 358° |
| 2026-05-06 15:01 | 53.67593 | -2.10117 | 12778 ft | 390 kts | 358° |
| 2026-05-06 15:01 | 53.70331 | -2.10197 | 13235 ft | 400 kts | 358° |
| 2026-05-06 15:01 | 53.73101 | -2.10561 | 13886 ft | 402 kts | 351° |
| 2026-05-06 15:02 | 53.75849 | -2.11529 | 14554 ft | 405 kts | 343° |
| 2026-05-06 15:02 | 53.78504 | -2.13055 | 15180 ft | 407 kts | 338° |
| 2026-05-06 15:02 | 53.81123 | -2.14823 | 15784 ft | 411 kts | 336° |
| 2026-05-06 15:02 | 53.83759 | -2.16653 | 16376 ft | 415 kts | 336° |
| 2026-05-06 15:03 | 53.86453 | -2.18521 | 16958 ft | 418 kts | 336° |
| 2026-05-06 15:03 | 53.89125 | -2.20360 | 17507 ft | 422 kts | 337° |
| 2026-05-06 15:03 | 53.91838 | -2.22222 | 18043 ft | 425 kts | 337° |
| 2026-05-06 15:03 | 53.94588 | -2.24110 | 18568 ft | 429 kts | 337° |
| 2026-05-06 15:04 | 53.97355 | -2.26012 | 19090 ft | 432 kts | 337° |
| 2026-05-06 15:04 | 54.00158 | -2.27941 | 19607 ft | 435 kts | 336° |
| 2026-05-06 15:04 | 54.02950 | -2.29865 | 20108 ft | 438 kts | 336° |
| 2026-05-06 15:04 | 54.05792 | -2.31828 | 20592 ft | 442 kts | 336° |
| 2026-05-06 15:05 | 54.08634 | -2.33796 | 21072 ft | 444 kts | 336° |
| 2026-05-06 15:05 | 54.11489 | -2.35777 | 21541 ft | 447 kts | 336° |
| 2026-05-06 15:05 | 54.14338 | -2.37757 | 21987 ft | 450 kts | 336° |
| 2026-05-06 15:05 | 54.17255 | -2.39783 | 22431 ft | 452 kts | 336° |
| 2026-05-06 15:06 | 54.20166 | -2.41803 | 22849 ft | 455 kts | 336° |
| 2026-05-06 15:06 | 54.23110 | -2.43849 | 23242 ft | 457 kts | 336° |
| 2026-05-06 15:06 | 54.26035 | -2.45886 | 23618 ft | 459 kts | 336° |
| 2026-05-06 15:06 | 54.28989 | -2.47947 | 23932 ft | 462 kts | 336° |
| 2026-05-06 15:07 | 54.31952 | -2.50017 | 23980 ft | 462 kts | 336° |
| 2026-05-06 15:07 | 54.34899 | -2.52080 | 23987 ft | 461 kts | 336° |
| 2026-05-06 15:07 | 54.37889 | -2.54176 | 23989 ft | 461 kts | 336° |
| 2026-05-06 15:07 | 54.40842 | -2.56251 | 23991 ft | 461 kts | 336° |
| 2026-05-06 15:08 | 54.43769 | -2.58311 | 23989 ft | 461 kts | 336° |
| 2026-05-06 15:08 | 54.46765 | -2.60423 | 23983 ft | 461 kts | 336° |
| 2026-05-06 15:08 | 54.49725 | -2.62514 | 23981 ft | 461 kts | 336° |
| 2026-05-06 15:08 | 54.52650 | -2.64580 | 23972 ft | 461 kts | 336° |
| 2026-05-06 15:09 | 54.55612 | -2.66678 | 23968 ft | 461 kts | 335° |
| 2026-05-06 15:09 | 54.58588 | -2.68788 | 23968 ft | 460 kts | 335° |
| 2026-05-06 15:09 | 54.61525 | -2.70873 | 23970 ft | 460 kts | 335° |
| 2026-05-06 15:09 | 54.64453 | -2.72958 | 23967 ft | 459 kts | 335° |
| 2026-05-06 15:10 | 54.67415 | -2.75070 | 23971 ft | 459 kts | 335° |
| 2026-05-06 15:10 | 54.70342 | -2.77162 | 23972 ft | 459 kts | 335° |
| 2026-05-06 15:10 | 54.73287 | -2.79266 | 23975 ft | 458 kts | 335° |
| 2026-05-06 15:10 | 54.76226 | -2.81371 | 23975 ft | 458 kts | 335° |
| 2026-05-06 15:11 | 54.79165 | -2.83478 | 23973 ft | 458 kts | 335° |
| 2026-05-06 15:11 | 54.82113 | -2.85596 | 23974 ft | 458 kts | 335° |
| 2026-05-06 15:11 | 54.85004 | -2.87679 | 23979 ft | 458 kts | 335° |
| 2026-05-06 15:11 | 54.87941 | -2.89796 | 23975 ft | 459 kts | 335° |
| 2026-05-06 15:12 | 54.90911 | -2.91939 | 23975 ft | 459 kts | 335° |
| 2026-05-06 15:12 | 54.93840 | -2.94055 | 23958 ft | 459 kts | 335° |
| 2026-05-06 15:12 | 54.96756 | -2.96164 | 23299 ft | 458 kts | 335° |
| 2026-05-06 15:12 | 54.99694 | -2.98294 | 22568 ft | 450 kts | 335° |
| 2026-05-06 15:13 | 55.02530 | -3.00353 | 21910 ft | 443 kts | 335° |
| 2026-05-06 15:13 | 55.05327 | -3.02387 | 21299 ft | 438 kts | 335° |
| 2026-05-06 15:13 | 55.08133 | -3.04433 | 20703 ft | 432 kts | 335° |
| 2026-05-06 15:13 | 55.10846 | -3.06413 | 20148 ft | 427 kts | 335° |
| 2026-05-06 15:14 | 55.13586 | -3.08418 | 19584 ft | 422 kts | 335° |
| 2026-05-06 15:14 | 55.16249 | -3.10367 | 19035 ft | 417 kts | 335° |
| 2026-05-06 15:14 | 55.18915 | -3.12319 | 18384 ft | 414 kts | 335° |
| 2026-05-06 15:14 | 55.21554 | -3.14258 | 17675 ft | 413 kts | 335° |
| 2026-05-06 15:15 | 55.24158 | -3.16175 | 16957 ft | 412 kts | 335° |
| 2026-05-06 15:15 | 55.26802 | -3.18126 | 16271 ft | 408 kts | 335° |
| 2026-05-06 15:15 | 55.29379 | -3.20025 | 15718 ft | 402 kts | 335° |
| 2026-05-06 15:15 | 55.31912 | -3.21892 | 15175 ft | 395 kts | 336° |
| 2026-05-06 15:16 | 55.34429 | -3.23751 | 14634 ft | 387 kts | 336° |
| 2026-05-06 15:16 | 55.36831 | -3.25527 | 14005 ft | 372 kts | 336° |
| 2026-05-06 15:16 | 55.39165 | -3.27257 | 13218 ft | 361 kts | 336° |
| 2026-05-06 15:16 | 55.41418 | -3.28929 | 12633 ft | 344 kts | 336° |
| 2026-05-06 15:17 | 55.43554 | -3.30514 | 12120 ft | 329 kts | 336° |
| 2026-05-06 15:17 | 55.45614 | -3.32047 | 11631 ft | 314 kts | 336° |
| 2026-05-06 15:17 | 55.47583 | -3.33515 | 11182 ft | 301 kts | 336° |
| 2026-05-06 15:17 | 55.49442 | -3.34958 | 10750 ft | 288 kts | 330° |
| 2026-05-06 15:18 | 55.51063 | -3.36854 | 10388 ft | 274 kts | 321° |
| 2026-05-06 15:18 | 55.52512 | -3.38945 | 10072 ft | 264 kts | 319° |
| 2026-05-06 15:18 | 55.53882 | -3.40984 | 9749 ft | 258 kts | 319° |
| 2026-05-06 15:18 | 55.55237 | -3.42998 | 9437 ft | 252 kts | 319° |
| 2026-05-06 15:19 | 55.56558 | -3.44954 | 9153 ft | 245 kts | 319° |
| 2026-05-06 15:19 | 55.57849 | -3.46858 | 8863 ft | 239 kts | 319° |
| 2026-05-06 15:19 | 55.59114 | -3.48720 | 8583 ft | 236 kts | 319° |
| 2026-05-06 15:19 | 55.60370 | -3.50569 | 8305 ft | 236 kts | 319° |
| 2026-05-06 15:20 | 55.61630 | -3.52424 | 8024 ft | 235 kts | 319° |
| 2026-05-06 15:20 | 55.62883 | -3.54271 | 7749 ft | 235 kts | 319° |
| 2026-05-06 15:20 | 55.64130 | -3.56109 | 7478 ft | 234 kts | 319° |
| 2026-05-06 15:20 | 55.65355 | -3.57978 | 7203 ft | 233 kts | 318° |
| 2026-05-06 15:21 | 55.66575 | -3.59875 | 6927 ft | 233 kts | 318° |
| 2026-05-06 15:21 | 55.67781 | -3.61757 | 6655 ft | 233 kts | 318° |
| 2026-05-06 15:21 | 55.68987 | -3.63631 | 6389 ft | 232 kts | 318° |
| 2026-05-06 15:21 | 55.70209 | -3.65467 | 6122 ft | 230 kts | 319° |
| 2026-05-06 15:22 | 55.71444 | -3.67284 | 5854 ft | 228 kts | 319° |
| 2026-05-06 15:22 | 55.72648 | -3.69052 | 5597 ft | 226 kts | 319° |
| 2026-05-06 15:22 | 55.73857 | -3.70831 | 5338 ft | 224 kts | 319° |
| 2026-05-06 15:22 | 55.75040 | -3.72578 | 5084 ft | 222 kts | 319° |
| 2026-05-06 15:23 | 55.76188 | -3.74348 | 4837 ft | 220 kts | 316° |
| 2026-05-06 15:23 | 55.77424 | -3.75964 | 4535 ft | 221 kts | 340° |
| 2026-05-06 15:23 | 55.78911 | -3.76045 | 4256 ft | 219 kts | 18° |
| 2026-05-06 15:23 | 55.80311 | -3.75059 | 4035 ft | 216 kts | 26° |
| 2026-05-06 15:24 | 55.81598 | -3.73763 | 3947 ft | 206 kts | 35° |
| 2026-05-06 15:24 | 55.82709 | -3.72199 | 3948 ft | 206 kts | 45° |
| 2026-05-06 15:24 | 55.83618 | -3.70339 | 4069 ft | 192 kts | 54° |
| 2026-05-06 15:24 | 55.84368 | -3.68472 | 3939 ft | 180 kts | 56° |
| 2026-05-06 15:25 | 55.85049 | -3.66660 | 3708 ft | 175 kts | 58° |
| 2026-05-06 15:25 | 55.85692 | -3.64848 | 3465 ft | 171 kts | 59° |
| 2026-05-06 15:25 | 55.86299 | -3.63077 | 3231 ft | 166 kts | 60° |
| 2026-05-06 15:25 | 55.86880 | -3.61357 | 3013 ft | 154 kts | 60° |
| 2026-05-06 15:26 | 55.87415 | -3.59764 | 2777 ft | 147 kts | 61° |
| 2026-05-06 15:26 | 55.87924 | -3.58201 | 2580 ft | 146 kts | 62° |
| 2026-05-06 15:26 | 55.88430 | -3.56644 | 2416 ft | 146 kts | 62° |
| 2026-05-06 15:26 | 55.88942 | -3.55106 | 2246 ft | 145 kts | 60° |
| 2026-05-06 15:27 | 55.89478 | -3.53580 | 2036 ft | 145 kts | 59° |
| 2026-05-06 15:27 | 55.90003 | -3.52042 | 1826 ft | 144 kts | 61° |
| 2026-05-06 15:27 | 55.90501 | -3.50513 | 1620 ft | 142 kts | 60° |
| 2026-05-06 15:27 | 55.91006 | -3.49026 | 1438 ft | 141 kts | 59° |
| 2026-05-06 15:28 | 55.91518 | -3.47557 | 1254 ft | 139 kts | 59° |
| 2026-05-06 15:28 | 55.92017 | -3.46081 | 1082 ft | 138 kts | 60° |
| 2026-05-06 15:28 | 55.92502 | -3.44612 | 895 ft | 137 kts | 59° |
| 2026-05-06 15:28 | 55.92988 | -3.43174 | 709 ft | 135 kts | 59° |
| 2026-05-06 15:29 | 55.93476 | -3.41745 | 537 ft | 135 kts | 58° |
| 2026-05-06 15:29 | 55.93961 | -3.40324 | 347 ft | 133 kts | 60° |
| 2026-05-06 15:29 | 55.94428 | -3.38917 | 183 ft | 132 kts | 57° |
| 2026-05-06 15:29 | 55.94887 | -3.37569 | 99 ft | 108 kts | 56° |
| 2026-05-06 15:30 | 55.95121 | -3.36888 | 99 ft | 25 kts | 58° |
| 2026-05-06 15:30 | 55.95216 | -3.36608 | 101 ft | 24 kts | 59° |
| 2026-05-06 15:30 | 55.95255 | -3.36435 | 103 ft | 12 kts | 114° |
| 2026-05-06 15:30 | 55.95212 | -3.36372 | 103 ft | 4 kts | 148° |
| 2026-05-06 15:31 | 55.95186 | -3.36345 | 103 ft | 5 kts | 150° |
| 2026-05-06 15:31 | 55.95150 | -3.36313 | 103 ft | 6 kts | 169° |
| 2026-05-06 15:31 | 55.95112 | -3.36354 | 103 ft | 7 kts | 232° |
| 2026-05-06 15:32 | 55.95044 | -3.36550 | 102 ft | 11 kts | 237° |
| 2026-05-06 15:32 | 55.95003 | -3.36667 | 103 ft | 10 kts | 237° |
| 2026-05-06 15:32 | 55.94979 | -3.36736 | 101 ft | 7 kts | 238° |
| 2026-05-06 15:32 | 55.94947 | -3.36819 | 100 ft | 7 kts | 206° |
| 2026-05-06 15:33 | 55.94897 | -3.36800 | 101 ft | 7 kts | 152° |
| 2026-05-06 15:33 | 55.94825 | -3.36779 | 103 ft | 10 kts | 179° |
| 2026-05-06 15:33 | 55.94760 | -3.36754 | 104 ft | 6 kts | 154° |
| 2026-05-06 15:33 | 55.94717 | -3.36740 | 105 ft | 5 kts | 169° |
| 2026-05-06 15:34 | 55.94702 | -3.36683 | 105 ft | 5 kts | 97° |
| 2026-05-06 15:34 | 55.94702 | -3.36619 | 105 ft | 2 kts | 88° |
| 2026-05-06 15:34 | 55.94703 | -3.36615 | 105 ft | 0 kts | 88° |